sensor_id;sensor_type;location;lat;lon;timestamp;noise_LAeq;noise_LA_min;noise_LA_max;noise_LA01;noise_LA95
42701;Laerm;28316;49.504;8.526;2023-07-29T00:02:08;39.90;38.05;41.38;;
42701;Laerm;28316;49.504;8.526;2023-07-29T00:04:34;39.74;38.05;41.14;;
42701;Laerm;28316;49.504;8.526;2023-07-29T00:06:59;39.94;38.21;41.30;;
42701;Laerm;28316;49.504;8.526;2023-07-29T00:09:25;40.28;38.95;41.46;;
42701;Laerm;28316;49.504;8.526;2023-07-29T00:11:51;40.29;38.95;41.61;;
42701;Laerm;28316;49.504;8.526;2023-07-29T00:14:16;40.31;37.88;42.09;;
42701;Laerm;28316;49.504;8.526;2023-07-29T00:16:42;40.73;39.34;41.75;;
42701;Laerm;28316;49.504;8.526;2023-07-29T00:19:08;40.84;39.68;41.96;;
42701;Laerm;28316;49.504;8.526;2023-07-29T00:21:34;40.79;39.34;41.89;;
42701;Laerm;28316;49.504;8.526;2023-07-29T00:24:00;40.05;38.52;41.53;;
42701;Laerm;28316;49.504;8.526;2023-07-29T00:26:27;40.08;38.60;41.22;;
42701;Laerm;28316;49.504;8.526;2023-07-29T00:28:58;39.90;38.37;41.06;;
42701;Laerm;28316;49.504;8.526;2023-07-29T00:31:24;39.74;38.21;40.98;;
42701;Laerm;28316;49.504;8.526;2023-07-29T00:33:49;39.67;38.21;40.89;;
42701;Laerm;28316;49.504;8.526;2023-07-29T00:36:15;39.67;38.05;40.98;;
42701;Laerm;28316;49.504;8.526;2023-07-29T00:38:41;39.67;38.21;40.98;;
42701;Laerm;28316;49.504;8.526;2023-07-29T00:41:07;39.69;38.05;41.14;;
42701;Laerm;28316;49.504;8.526;2023-07-29T00:43:33;39.69;38.05;41.06;;
42701;Laerm;28316;49.504;8.526;2023-07-29T00:46:00;39.70;37.70;41.06;;
42701;Laerm;28316;49.504;8.526;2023-07-29T00:48:26;39.74;38.05;41.06;;
42701;Laerm;28316;49.504;8.526;2023-07-29T00:50:54;39.80;38.05;41.14;;
42701;Laerm;28316;49.504;8.526;2023-07-29T00:53:19;39.81;38.05;41.30;;
42701;Laerm;28316;49.504;8.526;2023-07-29T00:55:45;39.84;38.21;41.14;;
42701;Laerm;28316;49.504;8.526;2023-07-29T00:58:12;39.86;38.21;41.22;;
42701;Laerm;28316;49.504;8.526;2023-07-29T01:00:37;39.85;38.21;41.22;;
42701;Laerm;28316;49.504;8.526;2023-07-29T01:03:04;39.83;38.21;41.14;;
42701;Laerm;28316;49.504;8.526;2023-07-29T01:05:40;39.77;38.21;41.22;;
42701;Laerm;28316;49.504;8.526;2023-07-29T01:08:31;39.67;37.88;40.98;;
42701;Laerm;28316;49.504;8.526;2023-07-29T01:14:05;39.30;34.69;40.71;;
42701;Laerm;28316;49.504;8.526;2023-07-29T01:16:43;39.12;37.17;40.62;;
42701;Laerm;28316;49.504;8.526;2023-07-29T01:19:39;39.12;29.92;42.03;;
42701;Laerm;28316;49.504;8.526;2023-07-29T01:22:08;42.53;40.23;72.03;;
42701;Laerm;28316;49.504;8.526;2023-07-29T01:24:35;41.60;40.43;42.53;;
42701;Laerm;28316;49.504;8.526;2023-07-29T01:27:01;41.42;40.08;42.47;;
42701;Laerm;28316;49.504;8.526;2023-07-29T01:29:30;41.59;40.43;42.59;;
42701;Laerm;28316;49.504;8.526;2023-07-29T01:32:04;43.67;40.43;47.18;;
42701;Laerm;28316;49.504;8.526;2023-07-29T01:34:45;47.52;45.17;48.73;;
42701;Laerm;28316;49.504;8.526;2023-07-29T01:37:18;47.96;46.84;48.81;;
42701;Laerm;28316;49.504;8.526;2023-07-29T01:39:47;47.66;47.06;48.23;;
42701;Laerm;28316;49.504;8.526;2023-07-29T01:42:15;47.92;47.24;66.00;;
42701;Laerm;28316;49.504;8.526;2023-07-29T01:44:41;48.12;47.44;48.87;;
42701;Laerm;28316;49.504;8.526;2023-07-29T01:47:08;48.43;47.86;48.95;;
42701;Laerm;28316;49.504;8.526;2023-07-29T01:49:34;48.29;47.72;48.92;;
42701;Laerm;28316;49.504;8.526;2023-07-29T01:51:59;48.35;47.70;48.94;;
42701;Laerm;28316;49.504;8.526;2023-07-29T01:54:25;47.80;46.55;48.76;;
42701;Laerm;28316;49.504;8.526;2023-07-29T01:56:51;46.25;41.82;53.07;;
42701;Laerm;28316;49.504;8.526;2023-07-29T01:59:17;41.39;39.81;43.49;;
42701;Laerm;28316;49.504;8.526;2023-07-29T02:01:43;40.91;39.46;47.57;;
42701;Laerm;28316;49.504;8.526;2023-07-29T02:04:08;40.70;39.46;41.75;;
42701;Laerm;28316;49.504;8.526;2023-07-29T02:06:34;40.71;39.21;41.82;;
42701;Laerm;28316;49.504;8.526;2023-07-29T02:09:00;40.49;38.95;41.61;;
42701;Laerm;28316;49.504;8.526;2023-07-29T02:11:26;40.01;38.21;41.30;;
42701;Laerm;28316;49.504;8.526;2023-07-29T02:13:54;39.96;38.37;41.53;;
42701;Laerm;28316;49.504;8.526;2023-07-29T02:16:22;39.89;38.32;41.14;;
42701;Laerm;28316;49.504;8.526;2023-07-29T02:18:48;39.96;38.52;41.30;;
42701;Laerm;28316;49.504;8.526;2023-07-29T02:21:15;39.89;38.05;41.30;;
42701;Laerm;28316;49.504;8.526;2023-07-29T02:23:41;39.75;38.21;41.06;;
42701;Laerm;28316;49.504;8.526;2023-07-29T02:26:07;40.35;38.81;41.46;;
42701;Laerm;28316;49.504;8.526;2023-07-29T02:28:32;40.31;38.95;41.46;;
42701;Laerm;28316;49.504;8.526;2023-07-29T02:31:21;40.03;38.21;41.75;;
42701;Laerm;28316;49.504;8.526;2023-07-29T02:33:48;40.35;38.95;41.46;;
42701;Laerm;28316;49.504;8.526;2023-07-29T02:36:14;39.91;37.52;41.38;;
42701;Laerm;28316;49.504;8.526;2023-07-29T02:38:41;38.97;37.32;40.53;;
42701;Laerm;28316;49.504;8.526;2023-07-29T02:41:08;39.23;37.12;40.53;;
42701;Laerm;28316;49.504;8.526;2023-07-29T02:43:36;39.33;37.70;41.75;;
42701;Laerm;28316;49.504;8.526;2023-07-29T02:46:02;39.39;37.70;40.71;;
42701;Laerm;28316;49.504;8.526;2023-07-29T02:48:28;39.43;37.70;40.89;;
42701;Laerm;28316;49.504;8.526;2023-07-29T02:50:54;39.51;37.88;41.22;;
42701;Laerm;28316;49.504;8.526;2023-07-29T02:53:22;39.57;37.88;41.06;;
42701;Laerm;28316;49.504;8.526;2023-07-29T02:55:48;39.58;37.70;40.89;;
42701;Laerm;28316;49.504;8.526;2023-07-29T02:58:14;39.58;37.88;40.98;;
42701;Laerm;28316;49.504;8.526;2023-07-29T03:00:40;39.53;37.88;40.98;;
42701;Laerm;28316;49.504;8.526;2023-07-29T03:03:08;39.46;37.52;40.89;;
42701;Laerm;28316;49.504;8.526;2023-07-29T03:05:34;39.42;37.70;40.80;;
42701;Laerm;28316;49.504;8.526;2023-07-29T03:08:00;39.32;37.32;41.14;;
42701;Laerm;28316;49.504;8.526;2023-07-29T03:10:25;39.23;37.52;40.62;;
42701;Laerm;28316;49.504;8.526;2023-07-29T03:12:53;39.13;37.52;40.53;;
42701;Laerm;28316;49.504;8.526;2023-07-29T03:15:23;39.00;36.69;40.62;;
42701;Laerm;28316;49.504;8.526;2023-07-29T03:17:51;38.87;36.91;40.33;;
42701;Laerm;28316;49.504;8.526;2023-07-29T03:20:16;38.71;36.69;40.23;;
42701;Laerm;28316;49.504;8.526;2023-07-29T03:22:44;38.53;36.20;40.13;;
42701;Laerm;28316;49.504;8.526;2023-07-29T03:25:10;38.31;35.66;40.03;;
42701;Laerm;28316;49.504;8.526;2023-07-29T03:27:36;38.11;34.69;39.81;;
42701;Laerm;28316;49.504;8.526;2023-07-29T03:30:06;37.99;34.31;39.81;;
42701;Laerm;28316;49.504;8.526;2023-07-29T03:32:32;37.86;32.35;40.13;;
42701;Laerm;28316;49.504;8.526;2023-07-29T03:34:58;37.72;32.35;39.58;;
42701;Laerm;28316;49.504;8.526;2023-07-29T03:37:24;37.55;32.35;39.58;;
42701;Laerm;28316;49.504;8.526;2023-07-29T03:39:50;37.47;32.93;39.46;;
42701;Laerm;28316;49.504;8.526;2023-07-29T03:42:18;37.41;32.93;39.58;;
42701;Laerm;28316;49.504;8.526;2023-07-29T03:44:43;37.04;32.35;39.34;;
42701;Laerm;28316;49.504;8.526;2023-07-29T03:47:09;37.31;31.68;39.81;;
42701;Laerm;28316;49.504;8.526;2023-07-29T03:49:35;37.24;32.35;39.58;;
42701;Laerm;28316;49.504;8.526;2023-07-29T03:52:00;37.23;32.93;39.21;;
42701;Laerm;28316;49.504;8.526;2023-07-29T03:54:26;37.16;32.35;39.34;;
42701;Laerm;28316;49.504;8.526;2023-07-29T03:56:52;37.14;31.68;39.21;;
42701;Laerm;28316;49.504;8.526;2023-07-29T03:59:17;37.07;32.00;39.58;;
42701;Laerm;28316;49.504;8.526;2023-07-29T04:01:43;37.04;31.68;39.58;;
42701;Laerm;28316;49.504;8.526;2023-07-29T04:04:09;37.03;32.93;39.34;;
42701;Laerm;28316;49.504;8.526;2023-07-29T04:06:35;36.60;31.68;39.34;;
42701;Laerm;28316;49.504;8.526;2023-07-29T04:09:00;36.36;28.67;39.46;;
42701;Laerm;28316;49.504;8.526;2023-07-29T04:11:26;49.01;29.92;84.88;;
42701;Laerm;28316;49.504;8.526;2023-07-29T04:13:52;39.68;26.56;70.69;;
42701;Laerm;28316;49.504;8.526;2023-07-29T04:16:17;56.13;35.36;92.23;;
42701;Laerm;28316;49.504;8.526;2023-07-29T04:18:43;37.97;29.92;48.87;;
42701;Laerm;28316;49.504;8.526;2023-07-29T04:21:09;37.63;32.35;53.28;;
42701;Laerm;28316;49.504;8.526;2023-07-29T04:23:35;37.32;30.89;39.34;;
42701;Laerm;28316;49.504;8.526;2023-07-29T04:26:01;37.14;32.35;39.21;;
42701;Laerm;28316;49.504;8.526;2023-07-29T04:28:26;37.04;32.35;39.46;;
42701;Laerm;28316;49.504;8.526;2023-07-29T04:30:52;36.89;30.89;39.34;;
42701;Laerm;28316;49.504;8.526;2023-07-29T04:33:18;36.87;32.35;39.21;;
42701;Laerm;28316;49.504;8.526;2023-07-29T04:35:44;36.83;32.35;39.21;;
42701;Laerm;28316;49.504;8.526;2023-07-29T04:38:09;36.80;32.35;39.46;;
42701;Laerm;28316;49.504;8.526;2023-07-29T04:40:35;36.79;32.35;39.21;;
42701;Laerm;28316;49.504;8.526;2023-07-29T04:43:01;36.73;32.35;39.46;;
42701;Laerm;28316;49.504;8.526;2023-07-29T04:45:30;36.71;32.35;39.21;;
42701;Laerm;28316;49.504;8.526;2023-07-29T04:47:58;36.73;32.35;39.58;;
42701;Laerm;28316;49.504;8.526;2023-07-29T04:50:24;36.69;31.68;39.34;;
42701;Laerm;28316;49.504;8.526;2023-07-29T04:52:49;36.66;32.35;39.34;;
42701;Laerm;28316;49.504;8.526;2023-07-29T04:55:15;36.67;31.68;39.34;;
42701;Laerm;28316;49.504;8.526;2023-07-29T04:57:41;36.66;32.35;39.21;;
42701;Laerm;28316;49.504;8.526;2023-07-29T05:00:07;36.64;31.68;39.08;;
42701;Laerm;28316;49.504;8.526;2023-07-29T05:02:33;36.64;30.89;39.21;;
42701;Laerm;28316;49.504;8.526;2023-07-29T05:04:59;36.66;31.68;39.34;;
42701;Laerm;28316;49.504;8.526;2023-07-29T05:07:24;36.61;30.89;39.70;;
42701;Laerm;28316;49.504;8.526;2023-07-29T05:09:50;36.62;31.68;39.81;;
42701;Laerm;28316;49.504;8.526;2023-07-29T05:12:15;36.54;31.68;39.34;;
42701;Laerm;28316;49.504;8.526;2023-07-29T05:14:41;36.55;30.89;39.34;;
42701;Laerm;28316;49.504;8.526;2023-07-29T05:17:07;36.59;29.92;39.21;;
42701;Laerm;28316;49.504;8.526;2023-07-29T05:19:33;36.67;30.89;56.25;;
42701;Laerm;28316;49.504;8.526;2023-07-29T05:21:58;36.58;30.89;39.46;;
42701;Laerm;28316;49.504;8.526;2023-07-29T05:24:24;36.56;29.92;39.58;;
42701;Laerm;28316;49.504;8.526;2023-07-29T05:26:50;36.56;30.89;39.08;;
42701;Laerm;28316;49.504;8.526;2023-07-29T05:29:15;36.56;30.89;39.08;;
42701;Laerm;28316;49.504;8.526;2023-07-29T05:31:41;36.55;31.68;38.95;;
42701;Laerm;28316;49.504;8.526;2023-07-29T05:34:07;36.59;31.68;39.58;;
42701;Laerm;28316;49.504;8.526;2023-07-29T05:36:33;36.56;31.68;39.34;;
42701;Laerm;28316;49.504;8.526;2023-07-29T05:38:58;36.49;29.92;39.21;;
42701;Laerm;28316;49.504;8.526;2023-07-29T05:41:24;36.51;31.68;40.33;;
42701;Laerm;28316;49.504;8.526;2023-07-29T05:43:53;36.54;31.68;39.08;;
42701;Laerm;28316;49.504;8.526;2023-07-29T05:46:18;36.52;29.92;39.21;;
42701;Laerm;28316;49.504;8.526;2023-07-29T05:48:44;36.52;30.89;39.21;;
42701;Laerm;28316;49.504;8.526;2023-07-29T05:51:10;36.51;30.89;39.34;;
42701;Laerm;28316;49.504;8.526;2023-07-29T05:53:35;36.55;30.89;39.21;;
42701;Laerm;28316;49.504;8.526;2023-07-29T05:56:01;36.48;30.89;39.21;;
42701;Laerm;28316;49.504;8.526;2023-07-29T05:58:27;36.50;30.89;39.08;;
42701;Laerm;28316;49.504;8.526;2023-07-29T06:00:53;36.49;30.89;39.08;;
42701;Laerm;28316;49.504;8.526;2023-07-29T06:03:18;36.49;29.92;39.46;;
42701;Laerm;28316;49.504;8.526;2023-07-29T06:05:44;36.50;31.68;39.21;;
42701;Laerm;28316;49.504;8.526;2023-07-29T06:08:10;36.52;30.89;39.46;;
42701;Laerm;28316;49.504;8.526;2023-07-29T06:10:35;36.55;31.68;39.58;;
42701;Laerm;28316;49.504;8.526;2023-07-29T06:13:01;36.61;30.89;39.34;;
42701;Laerm;28316;49.504;8.526;2023-07-29T06:15:27;36.66;30.89;39.46;;
42701;Laerm;28316;49.504;8.526;2023-07-29T06:17:53;36.71;31.68;39.46;;
42701;Laerm;28316;49.504;8.526;2023-07-29T06:20:19;36.81;32.93;39.81;;
42701;Laerm;28316;49.504;8.526;2023-07-29T06:22:44;36.91;32.93;40.03;;
42701;Laerm;28316;49.504;8.526;2023-07-29T06:25:10;36.95;32.93;39.58;;
42701;Laerm;28316;49.504;8.526;2023-07-29T06:27:36;37.07;32.93;39.58;;
42701;Laerm;28316;49.504;8.526;2023-07-29T06:30:02;37.17;32.93;39.46;;
42701;Laerm;28316;49.504;8.526;2023-07-29T06:32:27;37.22;33.44;40.03;;
42701;Laerm;28316;49.504;8.526;2023-07-29T06:34:53;37.28;33.44;39.58;;
42701;Laerm;28316;49.504;8.526;2023-07-29T06:37:20;37.32;34.31;40.13;;
42701;Laerm;28316;49.504;8.526;2023-07-29T06:39:46;37.38;34.31;39.92;;
42701;Laerm;28316;49.504;8.526;2023-07-29T06:42:11;37.39;34.31;39.81;;
42701;Laerm;28316;49.504;8.526;2023-07-29T06:44:37;37.38;33.90;39.92;;
42701;Laerm;28316;49.504;8.526;2023-07-29T06:47:03;37.48;34.69;39.92;;
42701;Laerm;28316;49.504;8.526;2023-07-29T06:49:29;37.65;34.31;40.71;;
42701;Laerm;28316;49.504;8.526;2023-07-29T06:51:55;37.72;34.69;40.23;;
42701;Laerm;28316;49.504;8.526;2023-07-29T06:54:25;37.80;35.04;40.62;;
42701;Laerm;28316;49.504;8.526;2023-07-29T06:56:53;37.86;34.69;39.99;;
42701;Laerm;28316;49.504;8.526;2023-07-29T06:59:19;38.01;35.36;40.62;;
42701;Laerm;28316;49.504;8.526;2023-07-29T07:01:46;38.21;35.66;40.80;;
42701;Laerm;28316;49.504;8.526;2023-07-29T07:04:12;38.33;35.94;40.33;;
42701;Laerm;28316;49.504;8.526;2023-07-29T07:06:37;38.43;35.94;40.71;;
42701;Laerm;28316;49.504;8.526;2023-07-29T07:09:03;38.69;36.20;40.80;;
42701;Laerm;28316;49.504;8.526;2023-07-29T07:11:29;38.76;36.45;41.82;;
42701;Laerm;28316;49.504;8.526;2023-07-29T07:13:55;38.76;35.66;40.71;;
42701;Laerm;28316;49.504;8.526;2023-07-29T07:16:20;38.87;36.45;40.98;;
42701;Laerm;28316;49.504;8.526;2023-07-29T07:18:46;38.92;36.56;40.89;;
42701;Laerm;28316;49.504;8.526;2023-07-29T07:21:12;39.01;36.69;40.89;;
42701;Laerm;28316;49.504;8.526;2023-07-29T07:23:39;39.19;36.91;41.14;;
42701;Laerm;28316;49.504;8.526;2023-07-29T07:26:05;39.25;37.32;41.14;;
42701;Laerm;28316;49.504;8.526;2023-07-29T07:28:30;39.24;37.12;40.98;;
42701;Laerm;28316;49.504;8.526;2023-07-29T07:30:56;39.26;37.12;42.71;;
42701;Laerm;28316;49.504;8.526;2023-07-29T07:33:22;39.28;36.91;42.41;;
42701;Laerm;28316;49.504;8.526;2023-07-29T07:35:48;39.21;37.12;41.22;;
42701;Laerm;28316;49.504;8.526;2023-07-29T07:38:14;39.13;36.91;40.89;;
42701;Laerm;28316;49.504;8.526;2023-07-29T07:40:39;39.17;36.69;40.80;;
42701;Laerm;28316;49.504;8.526;2023-07-29T07:43:05;39.34;37.12;41.14;;
42701;Laerm;28316;49.504;8.526;2023-07-29T07:45:32;39.43;37.12;41.06;;
42701;Laerm;28316;49.504;8.526;2023-07-29T07:47:58;39.48;37.12;41.14;;
42701;Laerm;28316;49.504;8.526;2023-07-29T07:50:24;39.55;37.12;41.14;;
42701;Laerm;28316;49.504;8.526;2023-07-29T07:52:50;39.76;38.05;41.53;;
42701;Laerm;28316;49.504;8.526;2023-07-29T07:55:16;39.92;38.21;42.41;;
42701;Laerm;28316;49.504;8.526;2023-07-29T07:57:41;40.05;38.21;41.53;;
42701;Laerm;28316;49.504;8.526;2023-07-29T08:00:08;40.13;38.37;41.61;;
42701;Laerm;28316;49.504;8.526;2023-07-29T08:02:35;39.96;38.05;41.61;;
42701;Laerm;28316;49.504;8.526;2023-07-29T08:05:00;42.77;32.93;77.06;;
42701;Laerm;28316;49.504;8.526;2023-07-29T08:07:26;45.35;36.91;80.23;;
42701;Laerm;28316;49.504;8.526;2023-07-29T08:09:52;51.21;35.66;86.51;;
42701;Laerm;28316;49.504;8.526;2023-07-29T08:12:17;57.30;38.21;93.40;;
42701;Laerm;28316;49.504;8.526;2023-07-29T08:14:43;41.64;39.21;70.41;;
42701;Laerm;28316;49.504;8.526;2023-07-29T08:17:09;42.77;39.81;73.76;;
42701;Laerm;28316;49.504;8.526;2023-07-29T08:19:34;42.20;40.27;46.13;;
42701;Laerm;28316;49.504;8.526;2023-07-29T08:22:03;46.56;43.19;53.01;;
42701;Laerm;28316;49.504;8.526;2023-07-29T08:24:29;47.93;46.59;51.61;;
42701;Laerm;28316;49.504;8.526;2023-07-29T08:26:54;48.77;47.96;50.53;;
42701;Laerm;28316;49.504;8.526;2023-07-29T08:29:20;50.07;48.02;54.12;;
42701;Laerm;28316;49.504;8.526;2023-07-29T08:31:46;51.44;50.43;65.13;;
42701;Laerm;28316;49.504;8.526;2023-07-29T08:34:11;50.79;44.80;52.08;;
42701;Laerm;28316;49.504;8.526;2023-07-29T08:36:37;44.38;40.23;63.69;;
42701;Laerm;28316;49.504;8.526;2023-07-29T08:39:03;41.26;40.13;42.41;;
42701;Laerm;28316;49.504;8.526;2023-07-29T08:42:02;41.39;40.13;42.71;;
42701;Laerm;28316;49.504;8.526;2023-07-29T08:44:42;41.54;40.23;61.07;;
42701;Laerm;28316;49.504;8.526;2023-07-29T08:47:09;41.29;40.08;42.29;;
42701;Laerm;28316;49.504;8.526;2023-07-29T08:49:36;41.14;39.70;42.47;;
42701;Laerm;28316;49.504;8.526;2023-07-29T08:52:04;40.77;39.46;41.89;;
42701;Laerm;28316;49.504;8.526;2023-07-29T08:54:30;40.49;38.95;41.75;;
42701;Laerm;28316;49.504;8.526;2023-07-29T08:56:56;39.86;38.05;41.30;;
42701;Laerm;28316;49.504;8.526;2023-07-29T08:59:22;40.55;38.21;42.47;;
42701;Laerm;28316;49.504;8.526;2023-07-29T09:01:49;38.51;32.93;40.80;;
42701;Laerm;28316;49.504;8.526;2023-07-29T09:04:15;37.47;31.68;39.58;;
42701;Laerm;28316;49.504;8.526;2023-07-29T09:06:43;38.95;34.69;41.53;;
42701;Laerm;28316;49.504;8.526;2023-07-29T09:09:10;40.11;38.52;41.61;;
42701;Laerm;28316;49.504;8.526;2023-07-29T09:11:36;40.20;38.21;43.14;;
42701;Laerm;28316;49.504;8.526;2023-07-29T09:14:02;40.35;38.37;43.68;;
42701;Laerm;28316;49.504;8.526;2023-07-29T09:16:27;40.51;38.95;44.65;;
42701;Laerm;28316;49.504;8.526;2023-07-29T09:18:53;40.51;38.81;41.96;;
42701;Laerm;28316;49.504;8.526;2023-07-29T09:21:24;40.82;39.34;42.09;;
42701;Laerm;28316;49.504;8.526;2023-07-29T09:23:52;41.05;39.21;42.29;;
42701;Laerm;28316;49.504;8.526;2023-07-29T09:26:26;40.92;39.46;42.16;;
42701;Laerm;28316;49.504;8.526;2023-07-29T09:28:57;40.85;39.21;42.22;;
42701;Laerm;28316;49.504;8.526;2023-07-29T09:31:25;40.80;38.95;42.22;;
42701;Laerm;28316;49.504;8.526;2023-07-29T09:34:03;40.91;39.46;42.29;;
42701;Laerm;28316;49.504;8.526;2023-07-29T09:36:33;41.09;39.46;42.47;;
42701;Laerm;28316;49.504;8.526;2023-07-29T09:39:00;41.13;39.81;42.53;;
42701;Laerm;28316;49.504;8.526;2023-07-29T09:41:29;41.57;39.92;43.77;;
42701;Laerm;28316;49.504;8.526;2023-07-29T09:44:04;41.61;40.23;43.39;;
42701;Laerm;28316;49.504;8.526;2023-07-29T09:46:36;41.62;40.23;42.76;;
42701;Laerm;28316;49.504;8.526;2023-07-29T09:49:04;41.69;40.13;42.93;;
42701;Laerm;28316;49.504;8.526;2023-07-29T09:51:30;41.76;39.92;42.88;;
42701;Laerm;28316;49.504;8.526;2023-07-29T09:53:56;41.84;40.43;42.93;;
42701;Laerm;28316;49.504;8.526;2023-07-29T09:56:26;41.88;40.62;43.09;;
42701;Laerm;28316;49.504;8.526;2023-07-29T09:58:52;41.95;40.53;43.04;;
42701;Laerm;28316;49.504;8.526;2023-07-29T10:01:20;41.94;40.62;43.34;;
42701;Laerm;28316;49.504;8.526;2023-07-29T10:03:47;41.91;40.71;43.34;;
42701;Laerm;28316;49.504;8.526;2023-07-29T10:06:14;41.85;40.53;43.09;;
42701;Laerm;28316;49.504;8.526;2023-07-29T10:08:42;41.84;40.33;44.58;;
42701;Laerm;28316;49.504;8.526;2023-07-29T10:11:10;41.80;40.33;42.88;;
42701;Laerm;28316;49.504;8.526;2023-07-29T10:13:37;41.84;40.33;43.14;;
42701;Laerm;28316;49.504;8.526;2023-07-29T10:16:04;41.93;40.62;43.49;;
42701;Laerm;28316;49.504;8.526;2023-07-29T10:18:33;41.95;40.43;46.69;;
42701;Laerm;28316;49.504;8.526;2023-07-29T10:21:02;41.94;40.53;43.24;;
42701;Laerm;28316;49.504;8.526;2023-07-29T10:23:37;41.91;40.43;42.98;;
42701;Laerm;28316;49.504;8.526;2023-07-29T10:26:06;41.89;40.53;43.04;;
42701;Laerm;28316;49.504;8.526;2023-07-29T10:28:40;41.90;40.62;43.04;;
42701;Laerm;28316;49.504;8.526;2023-07-29T10:31:08;41.89;40.43;45.14;;
42701;Laerm;28316;49.504;8.526;2023-07-29T10:33:35;41.91;40.71;43.14;;
42701;Laerm;28316;49.504;8.526;2023-07-29T10:36:04;41.94;40.43;43.14;;
42701;Laerm;28316;49.504;8.526;2023-07-29T10:38:30;41.95;40.63;43.81;;
42701;Laerm;28316;49.504;8.526;2023-07-29T10:40:57;42.22;40.71;59.07;;
42701;Laerm;28316;49.504;8.526;2023-07-29T10:43:36;42.03;40.62;48.99;;
42701;Laerm;28316;49.504;8.526;2023-07-29T10:46:22;41.84;40.13;44.39;;
42701;Laerm;28316;49.504;8.526;2023-07-29T10:48:56;42.72;40.13;59.26;;
42701;Laerm;28316;49.504;8.526;2023-07-29T10:51:35;41.86;40.03;51.17;;
42701;Laerm;28316;49.504;8.526;2023-07-29T10:54:13;41.71;39.70;50.36;;
42701;Laerm;28316;49.504;8.526;2023-07-29T10:56:47;42.30;39.70;60.25;;
42701;Laerm;28316;49.504;8.526;2023-07-29T11:01:42;41.63;36.91;53.23;;
42701;Laerm;28316;49.504;8.526;2023-07-29T11:12:39;63.39;33.44;97.23;;
42701;Laerm;28316;49.504;8.526;2023-07-29T11:15:28;39.39;36.45;55.94;;
42701;Laerm;28316;49.504;8.526;2023-07-29T11:18:01;38.76;35.66;40.62;;
42701;Laerm;28316;49.504;8.526;2023-07-29T11:20:30;36.97;30.89;52.91;;
42701;Laerm;28316;49.504;8.526;2023-07-29T11:23:03;40.10;33.44;42.35;;
42701;Laerm;28316;49.504;8.526;2023-07-29T11:25:30;41.61;40.13;42.82;;
42701;Laerm;28316;49.504;8.526;2023-07-29T11:27:59;41.90;40.23;47.67;;
42701;Laerm;28316;49.504;8.526;2023-07-29T11:30:25;42.00;40.62;43.19;;
42701;Laerm;28316;49.504;8.526;2023-07-29T11:32:57;42.57;40.33;60.09;;
42701;Laerm;28316;49.504;8.526;2023-07-29T11:35:24;42.76;39.92;62.29;;
42701;Laerm;28316;49.504;8.526;2023-07-29T11:37:51;43.72;39.92;64.29;;
42701;Laerm;28316;49.504;8.526;2023-07-29T11:40:22;41.87;39.58;54.75;;
42701;Laerm;28316;49.504;8.526;2023-07-29T11:42:49;44.76;39.70;66.06;;
42701;Laerm;28316;49.504;8.526;2023-07-29T11:45:16;42.63;38.95;60.03;;
42701;Laerm;28316;49.504;8.526;2023-07-29T11:47:42;46.45;39.46;72.79;;
42701;Laerm;28316;49.504;8.526;2023-07-29T11:50:10;41.77;39.34;52.92;;
42701;Laerm;28316;49.504;8.526;2023-07-29T11:52:37;44.07;38.87;63.64;;
42701;Laerm;28316;49.504;8.526;2023-07-29T11:55:05;41.38;38.95;55.53;;
42701;Laerm;28316;49.504;8.526;2023-07-29T11:57:35;41.54;38.95;52.65;;
42701;Laerm;28316;49.504;8.526;2023-07-29T12:00:03;44.09;39.08;64.62;;
42701;Laerm;28316;49.504;8.526;2023-07-29T12:02:31;42.09;38.95;60.67;;
42701;Laerm;28316;49.504;8.526;2023-07-29T12:04:58;42.35;38.95;65.29;;
42701;Laerm;28316;49.504;8.526;2023-07-29T12:07:24;41.43;38.67;56.16;;
42701;Laerm;28316;49.504;8.526;2023-07-29T12:09:50;40.94;38.67;46.02;;
42701;Laerm;28316;49.504;8.526;2023-07-29T12:12:17;40.93;38.67;46.13;;
42701;Laerm;28316;49.504;8.526;2023-07-29T12:14:46;43.19;38.37;61.63;;
42701;Laerm;28316;49.504;8.526;2023-07-29T12:17:12;41.61;38.52;57.93;;
42701;Laerm;28316;49.504;8.526;2023-07-29T12:19:39;41.33;37.88;55.85;;
42701;Laerm;28316;49.504;8.526;2023-07-29T12:22:08;44.76;38.52;63.15;;
42701;Laerm;28316;49.504;8.526;2023-07-29T12:24:38;41.02;38.21;52.83;;
42701;Laerm;28316;49.504;8.526;2023-07-29T12:27:09;41.36;38.37;53.17;;
42701;Laerm;28316;49.504;8.526;2023-07-29T12:29:40;40.96;38.37;49.64;;
42701;Laerm;28316;49.504;8.526;2023-07-29T12:32:07;41.33;38.52;57.84;;
42701;Laerm;28316;49.504;8.526;2023-07-29T12:34:33;42.68;36.91;59.38;;
42701;Laerm;28316;49.504;8.526;2023-07-29T12:37:03;46.06;38.52;65.66;;
42701;Laerm;28316;49.504;8.526;2023-07-29T12:39:32;41.07;37.88;56.33;;
42701;Laerm;28316;49.504;8.526;2023-07-29T12:42:00;41.66;38.05;61.38;;
42701;Laerm;28316;49.504;8.526;2023-07-29T12:44:33;42.47;37.70;59.30;;
42701;Laerm;28316;49.504;8.526;2023-07-29T12:47:05;42.36;37.88;61.36;;
42701;Laerm;28316;49.504;8.526;2023-07-29T12:49:31;41.29;37.88;54.26;;
42701;Laerm;28316;49.504;8.526;2023-07-29T12:51:59;42.80;38.05;60.96;;
42701;Laerm;28316;49.504;8.526;2023-07-29T12:54:25;44.49;37.88;66.83;;
42701;Laerm;28316;49.504;8.526;2023-07-29T12:56:50;42.00;38.05;62.61;;
42701;Laerm;28316;49.504;8.526;2023-07-29T12:59:16;45.08;38.05;63.72;;
42701;Laerm;28316;49.504;8.526;2023-07-29T13:01:42;40.86;37.88;50.95;;
42701;Laerm;28316;49.504;8.526;2023-07-29T13:04:12;40.82;37.88;52.65;;
42701;Laerm;28316;49.504;8.526;2023-07-29T13:06:38;42.66;37.70;63.10;;
42701;Laerm;28316;49.504;8.526;2023-07-29T13:09:04;42.41;37.32;60.28;;
42701;Laerm;28316;49.504;8.526;2023-07-29T13:11:31;41.03;37.32;54.01;;
42701;Laerm;28316;49.504;8.526;2023-07-29T13:13:58;40.80;37.52;52.13;;
42701;Laerm;28316;49.504;8.526;2023-07-29T13:16:24;40.50;37.70;51.59;;
42701;Laerm;28316;49.504;8.526;2023-07-29T13:18:50;42.18;38.05;62.09;;
42701;Laerm;28316;49.504;8.526;2023-07-29T13:21:15;43.05;37.52;64.32;;
42701;Laerm;28316;49.504;8.526;2023-07-29T13:23:41;42.22;37.88;62.28;;
42701;Laerm;28316;49.504;8.526;2023-07-29T13:26:07;41.33;37.88;59.33;;
42701;Laerm;28316;49.504;8.526;2023-07-29T13:28:32;45.09;37.32;66.50;;
42701;Laerm;28316;49.504;8.526;2023-07-29T13:30:58;43.21;37.52;60.23;;
42701;Laerm;28316;49.504;8.526;2023-07-29T13:33:24;43.82;37.32;67.37;;
42701;Laerm;28316;49.504;8.526;2023-07-29T13:35:50;43.31;37.70;62.42;;
42701;Laerm;28316;49.504;8.526;2023-07-29T13:38:15;44.90;37.88;67.85;;
42701;Laerm;28316;49.504;8.526;2023-07-29T13:40:41;46.29;37.88;67.39;;
42701;Laerm;28316;49.504;8.526;2023-07-29T13:43:07;43.64;37.70;63.65;;
42701;Laerm;28316;49.504;8.526;2023-07-29T13:45:34;47.13;37.52;70.34;;
42701;Laerm;28316;49.504;8.526;2023-07-29T13:48:00;42.35;37.52;59.96;;
42701;Laerm;28316;49.504;8.526;2023-07-29T13:50:26;40.75;37.32;53.73;;
42701;Laerm;28316;49.504;8.526;2023-07-29T13:52:51;41.39;37.52;57.28;;
42701;Laerm;28316;49.504;8.526;2023-07-29T13:55:17;47.35;37.70;68.08;;
42701;Laerm;28316;49.504;8.526;2023-07-29T13:57:43;42.03;37.52;63.23;;
42701;Laerm;28316;49.504;8.526;2023-07-29T14:00:09;43.38;37.35;64.17;;